Time;durP1;ratioP1;P1;durP2;ratioP2;P2;SDS_P1;SDS_P2;PMS_P1;PMS_P2;Temp;Humidity;BMP_temperature;BMP_pressure;BME280_temperature;BME280_humidity;BME280_pressure;Samples;Min_cycle;Max_cycle;Signal;HPM_P1;HPM_P2
2021/10/25 00:01:16;;;;;;;5.45;2.40;;;;;;;9.15;52.74;103122.75;1747410;82;21832;-74
2021/10/25 00:03:49;;;;;;;;;;;;;;;9.16;52.66;103120.31;1763492;81;21458;-76
2021/10/25 00:06:21;;;;;;;5.85;3.02;;;;;;;9.17;52.37;103121.19;1762746;81;20197;-77
2021/10/25 00:08:54;;;;;;;9.30;2.75;;;;;;;9.14;52.52;103119.66;1762888;81;21194;-79
2021/10/25 00:11:28;;;;;;;5.33;3.25;;;;;;;9.14;52.59;103122.42;1762604;81;21743;-77
2021/10/25 00:14:00;;;;;;;6.95;3.22;;;;;;;9.16;52.68;103127.24;1762815;81;21264;-78
2021/10/25 00:16:33;;;;;;;5.20;3.00;;;;;;;9.19;52.52;103123.23;1762588;81;21170;-74
2021/10/25 00:19:15;;;;;;;7.58;2.77;;;;;;;9.17;52.61;103126.19;1762717;81;21214;-75
2021/10/25 00:21:47;;;;;;;9.08;2.70;;;;;;;9.17;52.63;103126.19;1762804;81;21245;-74
2021/10/25 00:24:20;;;;;;;3.70;2.57;;;;;;;9.16;52.66;103127.75;1763038;81;21317;-77
2021/10/25 00:26:54;;;;;;;7.72;3.17;;;;;;;9.15;52.59;103132.45;1762729;81;21335;-80
2021/10/25 00:29:27;;;;;;;6.97;3.02;;;;;;;9.14;52.77;103133.52;1762878;81;21901;-74
2021/10/25 00:31:59;;;;;;;10.55;3.08;;;;;;;9.12;52.90;103135.59;1762787;81;21799;-74
2021/10/25 00:34:32;;;;;;;5.53;2.65;;;;;;;9.11;53.01;103132.49;1762593;81;21202;-81
2021/10/25 00:37:05;;;;;;;8.38;3.10;;;;;;;9.11;52.97;103139.42;1763559;81;21328;-75
2021/10/25 00:39:38;;;;;;;9.03;3.08;;;;;;;9.10;53.11;103132.67;1763638;81;21391;-74
2021/10/25 00:42:11;;;;;;;10.63;3.80;;;;;;;9.09;53.06;103136.50;1763551;81;21324;-76
2021/10/25 00:44:44;;;;;;;6.90;2.90;;;;;;;9.07;52.96;103139.45;1762620;81;21249;-74
2021/10/25 00:47:36;;;;;;;9.85;3.45;;;;;;;9.05;52.90;103142.95;1788361;80;21189;-76
2021/10/25 00:50:09;;;;;;;6.42;3.40;;;;;;;9.04;52.95;103141.23;1789895;80;21273;-74
2021/10/25 00:52:43;;;;;;;6.17;3.42;;;;;;;9.05;53.11;103141.56;1763360;81;21371;-75
2021/10/25 00:55:15;;;;;;;;;;;;;;;9.06;53.14;103137.73;1766025;81;21862;-76
2021/10/25 00:57:47;;;;;;;10.85;3.58;;;;;;;9.06;53.17;103144.67;1763336;81;20257;-75
2021/10/25 01:00:20;;;;;;;6.75;3.40;;;;;;;9.03;52.97;103138.65;1762731;81;21363;-75
2021/10/25 01:02:52;;;;;;;5.23;2.90;;;;;;;9.02;53.05;103146.63;1762805;81;21372;-75
2021/10/25 01:05:26;;;;;;;7.00;2.97;;;;;;;9.02;53.24;103150.79;1755337;81;21723;-76
2021/10/25 01:07:58;;;;;;;9.40;2.92;;;;;;;9.01;53.30;103150.46;1717966;80;21438;-75
2021/10/25 01:10:32;;;;;;;6.45;2.87;;;;;;;9.02;53.32;103151.66;1706412;84;21333;-74
2021/10/25 01:13:05;;;;;;;9.43;3.33;;;;;;;9.04;53.33;103159.25;1706558;84;21910;-73
2021/10/25 01:15:38;;;;;;;8.07;3.57;;;;;;;9.03;53.43;103153.89;1706653;84;21195;-73
2021/10/25 01:18:10;;;;;;;9.65;3.75;;;;;;;9.03;53.48;103152.50;1706674;84;21384;-73
2021/10/25 01:20:45;;;;;;;7.33;3.27;;;;;;;9.01;53.51;103154.07;1706659;84;21348;-74
2021/10/25 01:23:44;;;;;;;10.95;3.22;;;;;;;8.98;53.52;103161.91;1706619;84;21348;-72
2021/10/25 01:26:18;;;;;;;9.18;3.27;;;;;;;8.96;53.56;103162.63;1706464;84;21838;-74
2021/10/25 01:28:56;;;;;;;7.53;3.62;;;;;;;8.95;53.52;103167.33;1706655;84;21336;-73
2021/10/25 01:31:29;;;;;;;7.35;3.40;;;;;;;8.93;53.41;103169.95;1706585;84;21336;-76
2021/10/25 01:34:02;;;;;;;6.37;3.15;;;;;;;8.92;53.54;103167.69;1706812;84;21329;-73
2021/10/25 01:36:37;;;;;;;6.42;3.08;;;;;;;8.93;53.49;103172.17;1706518;84;21340;-73
2021/10/25 01:39:10;;;;;;;7.87;3.10;;;;;;;8.91;53.24;103171.52;1706553;84;21380;-74
2021/10/25 01:41:43;;;;;;;5.33;2.80;;;;;;;8.92;53.28;103170.45;1706474;80;21950;-79
2021/10/25 01:44:15;;;;;;;8.73;2.75;;;;;;;8.91;53.19;103176.19;1732784;83;21382;-76
2021/10/25 01:46:48;;;;;;;6.67;2.85;;;;;;;8.90;53.02;103185.03;1732356;83;21384;-76
2021/10/25 01:49:23;;;;;;;9.13;2.95;;;;;;;8.88;53.03;103195.97;1736665;81;21177;-79
2021/10/25 01:51:58;;;;;;;7.83;4.00;;;;;;;8.86;52.98;103191.98;1732505;81;21343;-75
2021/10/25 01:54:44;;;;;;;13.13;3.60;;;;;;;8.86;52.97;103187.83;1732431;83;21738;-80
2021/10/25 01:57:16;;;;;;;10.50;2.65;;;;;;;8.84;52.98;103189.94;1737480;82;21193;-80
2021/10/25 01:59:49;;;;;;;5.22;2.35;;;;;;;8.83;52.93;103196.54;1732552;83;21363;-81
2021/10/25 02:02:24;;;;;;;8.23;3.00;;;;;;;8.82;52.91;103203.10;1736811;82;21893;-77
2021/10/25 02:05:01;;;;;;;8.43;3.20;;;;;;;8.76;52.83;103194.70;1732514;83;21193;-78
2021/10/25 02:07:34;;;;;;;6.62;3.15;;;;;;;8.74;52.71;103198.16;1737490;82;21394;-82
2021/10/25 02:10:11;;;;;;;7.22;3.33;;;;;;;8.69;52.71;103187.64;1732641;83;21181;-76
2021/10/25 02:12:44;;;;;;;6.42;2.92;;;;;;;8.65;52.83;103186.31;1737496;82;21264;-76
2021/10/25 02:15:16;;;;;;;5.10;2.45;;;;;;;8.60;52.73;103192.94;1732488;83;21355;-82
2021/10/25 02:17:49;;;;;;;5.42;2.52;;;;;;;8.56;52.87;103188.80;1737458;82;21189;-82
2021/10/25 02:20:23;;;;;;;6.42;3.05;;;;;;;8.54;52.64;103192.29;1732613;83;21456;-79
2021/10/25 02:23:01;;;;;;;5.53;2.45;;;;;;;8.44;52.55;103191.67;1732728;83;21327;-81
2021/10/25 02:25:38;;;;;;;10.80;2.77;;;;;;;8.37;52.83;103197.61;1737740;82;21165;-76
2021/10/25 02:28:13;;;;;;;13.08;2.98;;;;;;;8.30;52.99;103194.38;1731883;82;21354;-74
2021/10/25 02:30:49;;;;;;;4.70;2.50;;;;;;;8.25;53.18;103196.31;1737620;82;21185;-80
2021/10/25 02:33:22;;;;;;;5.72;2.67;;;;;;;8.20;53.35;103199.31;1732684;83;21343;-81
2021/10/25 02:35:54;;;;;;;4.58;2.33;;;;;;;8.15;53.52;103200.34;1737581;81;21386;-76
2021/10/25 02:38:27;;;;;;;7.40;2.47;;;;;;;8.09;53.56;103199.14;1732579;81;21339;-74
2021/10/25 02:41:00;;;;;;;;;;;;;;;8.04;53.61;103200.24;1735355;83;21833;-78
2021/10/25 02:43:33;;;;;;;7.22;2.42;;;;;;;7.97;53.82;103192.30;1746304;82;20186;-76
2021/10/25 02:46:07;;;;;;;5.47;2.47;;;;;;;7.92;53.89;103196.67;1751400;82;21238;-75
2021/10/25 02:48:43;;;;;;;6.05;2.52;;;;;;;7.82;53.82;103194.12;1751010;81;21329;-80
2021/10/25 02:51:20;;;;;;;4.47;2.00;;;;;;;7.73;53.95;103194.36;1751198;82;21368;-76
2021/10/25 02:53:56;;;;;;;4.20;2.15;;;;;;;7.68;54.05;103200.44;1751104;82;21758;-74
2021/10/25 02:56:30;;;;;;;5.87;2.20;;;;;;;7.64;53.88;103204.59;1751222;82;21356;-76
2021/10/25 02:59:08;;;;;;;5.72;2.20;;;;;;;7.55;54.05;103202.91;1751384;82;21376;-75
2021/10/25 03:01:39;;;;;;;7.55;3.02;;;;;;;7.49;54.19;103201.38;1751303;81;21360;-75
2021/10/25 03:04:12;;;;;;;3.77;1.90;;;;;;;7.41;54.30;103206.40;1751046;82;21265;-75
2021/10/25 03:06:45;;;;;;;6.05;2.70;;;;;;;7.38;54.63;103207.81;1751315;82;21202;-75
2021/10/25 03:09:18;;;;;;;3.75;2.30;;;;;;;7.33;54.91;103213.01;1751275;82;21194;-76
2021/10/25 03:11:50;;;;;;;11.12;3.20;;;;;;;7.27;55.10;103217.86;1751838;82;21434;-74
2021/10/25 03:14:23;;;;;;;19.48;10.38;;;;;;;7.27;55.39;103222.00;1752789;82;21889;-73
2021/10/25 03:17:01;;;;;;;25.43;13.60;;;;;;;7.23;55.32;103216.81;1749093;82;21436;-77
2021/10/25 03:19:38;;;;;;;35.55;18.62;;;;;;;7.18;55.45;103219.78;1726536;82;21736;-76
2021/10/25 03:22:12;;;;;;;30.72;19.05;;;;;;;7.13;55.59;103214.42;1751575;82;21392;-81
2021/10/25 03:24:45;;;;;;;30.27;15.85;;;;;;;7.08;55.71;103223.78;1751463;82;21340;-78
2021/10/25 03:27:18;;;;;;;28.25;14.85;;;;;;;7.00;55.91;103223.27;1751349;82;21372;-76
2021/10/25 03:29:52;;;;;;;21.23;10.20;;;;;;;6.95;55.97;103234.50;1751115;82;21182;-77
2021/10/25 03:32:25;;;;;;;20.87;9.00;;;;;;;6.91;56.08;103233.11;1751404;82;21264;-76
2021/10/25 03:34:59;;;;;;;14.15;6.20;;;;;;;6.85;56.29;103225.52;1751317;82;21250;-82
2021/10/25 03:37:34;;;;;;;7.33;3.92;;;;;;;6.79;56.32;103223.45;1751346;82;21199;-76
2021/10/25 03:40:08;;;;;;;8.65;3.85;;;;;;;6.74;56.33;103227.25;1751543;82;21378;-81
2021/10/25 03:42:45;;;;;;;5.92;2.95;;;;;;;6.70;56.33;103225.36;1751449;82;21858;-77
2021/10/25 03:45:27;;;;;;;11.53;3.35;;;;;;;6.64;56.36;103221.03;1733523;82;21335;-75
2021/10/25 03:48:01;;;;;;;6.65;2.62;;;;;;;6.57;56.47;103226.39;1731613;83;21327;-76
2021/10/25 03:50:36;;;;;;;5.25;2.25;;;;;;;6.54;56.52;103227.26;1730863;81;21367;-75
2021/10/25 03:53:18;;;;;;;5.30;2.22;;;;;;;6.48;56.58;103227.41;1729051;83;21864;-81
2021/10/25 04:26:46;;;;;;;11.43;6.37;;;;;;;6.10;57.25;103245.12;1714976;83;21186;-81
2021/10/25 04:29:04;;;;;;;8.05;5.25;;;;;;;6.06;57.12;103234.95;1718954;83;21314;-75
2021/10/25 04:31:37;;;;;;;14.13;4.03;;;;;;;6.06;57.38;103236.33;1719765;83;21242;-76
2021/10/25 04:34:10;;;;;;;5.97;3.00;;;;;;;6.08;57.56;103238.39;1720039;83;21356;-81
2021/10/25 04:36:56;;;;;;;5.53;3.33;;;;;;;6.06;57.50;103240.97;1715461;83;21368;-76
2021/10/25 04:39:37;;;;;;;5.10;3.12;;;;;;;6.01;57.57;103235.97;1719295;83;21349;-76
2021/10/25 04:42:16;;;;;;;9.38;5.25;;;;;;;6.00;57.64;103238.38;1718791;83;21306;-78
2021/10/25 04:44:46;;;;;;;15.05;9.33;;;;;;;5.98;57.75;103239.58;1719753;83;21348;-77
2021/10/25 04:47:19;;;;;;;25.02;13.83;;;;;;;5.99;57.85;103227.52;1720066;83;21862;-81
2021/10/25 04:49:53;;;;;;;26.07;13.83;;;;;;;5.99;57.90;103238.54;1719777;83;21756;-77
2021/10/25 04:52:40;;;;;;;19.57;11.57;;;;;;;5.99;58.00;103239.39;1679176;83;21352;-75
2021/10/25 04:55:13;;;;;;;18.75;9.75;;;;;;;6.02;58.01;103241.82;1719601;83;21384;-74
2021/10/25 04:57:46;;;;;;;10.55;6.50;;;;;;;6.06;57.98;103244.60;1719583;83;21381;-76
2021/10/25 05:00:18;;;;;;;15.40;6.40;;;;;;;6.09;58.37;103246.13;1719148;83;21340;-74
2021/10/25 05:02:52;;;;;;;9.85;6.12;;;;;;;6.13;58.67;103253.05;1688014;83;21733;-78
2021/10/25 05:05:24;;;;;;;9.57;5.70;;;;;;;6.14;58.53;103252.01;1687815;83;21284;-78
2021/10/25 05:07:58;;;;;;;15.63;8.55;;;;;;;6.12;58.46;103253.55;1701228;77;21926;-75
2021/10/25 05:10:31;;;;;;;17.85;11.57;;;;;;;6.13;58.45;103253.05;1753064;82;21326;-75
2021/10/25 05:13:05;;;;;;;19.02;11.73;;;;;;;6.14;58.50;103258.91;1751924;82;21219;-75
2021/10/25 05:15:37;;;;;;;16.70;10.32;;;;;;;6.17;58.79;103251.16;1683963;85;21191;-72
2021/10/25 05:18:13;;;;;;;26.70;17.60;;;;;;;6.21;58.70;103253.05;1708830;83;21219;-74
2021/10/25 05:20:46;;;;;;;30.82;21.35;;;;;;;6.26;58.70;103257.55;1683966;85;21334;-76
2021/10/25 05:23:21;;;;;;;38.75;25.57;;;;;;;6.26;58.77;103263.08;1712386;83;21852;-81
2021/10/25 05:25:56;;;;;;;39.20;25.05;;;;;;;6.25;58.67;103263.61;1684472;85;21372;-78
2021/10/25 05:28:30;;;;;;;38.83;23.55;;;;;;;6.27;58.72;103268.94;1711885;84;21744;-82
2021/10/25 05:31:06;;;;;;;34.80;22.02;;;;;;;6.30;58.72;103267.23;1711907;84;21764;-74
2021/10/25 05:33:41;;;;;;;29.55;17.52;;;;;;;6.35;58.67;103266.21;1683670;85;21187;-74
2021/10/25 05:36:13;;;;;;;28.70;17.80;;;;;;;6.39;58.72;103264.31;1712165;83;21190;-77
2021/10/25 05:38:48;;;;;;;26.48;15.10;;;;;;;6.45;58.75;103276.05;1711824;83;21242;-76
2021/10/25 05:41:22;;;;;;;26.17;14.45;;;;;;;6.51;58.70;103273.99;1711983;83;21365;-76
2021/10/25 05:43:56;;;;;;;27.85;11.70;;;;;;;6.58;58.73;103279.67;1683929;84;21329;-80
2021/10/25 05:46:29;;;;;;;28.47;14.58;;;;;;;6.66;58.59;103279.70;1712164;83;21202;-75
2021/10/25 05:49:02;;;;;;;23.35;11.85;;;;;;;6.73;58.43;103281.59;1712699;83;21356;-76
2021/10/25 05:51:35;;;;;;;14.43;9.30;;;;;;;6.82;58.26;103289.36;1712768;84;21333;-76
2021/10/25 05:54:08;;;;;;;23.67;6.72;;;;;;;6.91;58.12;103294.70;1712389;84;21329;-75
2021/10/25 05:56:42;;;;;;;15.55;6.83;;;;;;;7.00;57.65;103299.72;1712317;84;21726;-74
2021/10/25 05:59:16;;;;;;;8.58;4.37;;;;;;;7.10;57.17;103299.03;1683634;85;21369;-75
2021/10/25 06:01:57;;;;;;;;;;;;;;;7.18;56.69;103298.52;1714570;84;21214;-84
2021/10/25 06:04:26;;;;;;;8.40;3.40;;;;;;;7.27;56.39;103295.22;1711827;84;20597;-75
2021/10/25 06:07:17;;;;;;;6.97;2.75;;;;;;;7.36;56.31;103309.70;1712039;84;22421;-74
2021/10/25 06:09:51;;;;;;;9.23;2.80;;;;;;;7.50;55.63;103313.66;1712458;83;21340;-76
2021/10/25 06:12:25;;;;;;;3.87;2.17;;;;;;;7.64;54.87;103314.30;1713166;84;21171;-86
2021/10/25 06:15:06;;;;;;;5.72;2.35;;;;;;;7.74;54.62;103313.09;1682549;85;21352;-75
2021/10/25 06:17:51;;;;;;;5.15;2.35;;;;;;;7.84;54.03;103308.19;1743613;81;21342;-76
2021/10/25 06:20:17;;;;;;;4.17;2.10;;;;;;;7.95;54.17;103311.13;1741540;82;21321;-79
2021/10/25 06:22:50;;;;;;;9.47;2.30;;;;;;;8.12;54.27;103312.24;1743772;81;21195;-80
2021/10/25 06:25:23;;;;;;;4.57;1.70;;;;;;;8.32;53.96;103309.94;1743955;82;21361;-77
2021/10/25 06:27:57;;;;;;;5.62;2.08;;;;;;;8.51;53.33;103318.63;1743333;82;21584;-79
2021/10/25 06:30:30;;;;;;;13.15;3.58;;;;;;;8.67;51.83;103314.89;1743500;82;21259;-86
2021/10/25 06:33:04;;;;;;;8.33;2.60;;;;;;;8.75;51.85;103325.39;1743824;82;21369;-76
2021/10/25 06:36:03;;;;;;;6.45;2.20;;;;;;;8.85;51.51;103324.63;1743206;81;21752;-76
2021/10/25 06:38:53;;;;;;;4.42;2.25;;;;;;;9.00;50.96;103324.16;1743763;82;21855;-81
2021/10/25 06:41:20;;;;;;;6.65;2.02;;;;;;;9.13;50.35;103324.39;1741401;82;21325;-82
2021/10/25 06:43:53;;;;;;;6.35;2.40;;;;;;;9.29;50.42;103327.53;1743348;81;21429;-83
2021/10/25 06:46:26;;;;;;;;;;;;;;;9.41;49.73;103332.45;1745860;82;21340;-76
2021/10/25 06:49:01;;;;;;;6.92;2.55;;;;;;;9.48;49.01;103318.17;1743379;82;20252;-79
2021/10/25 06:51:38;;;;;;;4.60;2.50;;;;;;;9.56;48.72;103327.81;1743256;82;21294;-88
2021/10/25 06:54:29;;;;;;;5.83;2.35;;;;;;;9.66;48.74;103331.70;1743427;82;21321;-85
2021/10/25 06:57:02;;;;;;;4.50;2.35;;;;;;;9.76;48.52;103330.37;1743453;82;21860;-84
2021/10/25 06:59:36;;;;;;;9.80;2.25;;;;;;;9.82;47.87;103330.12;1743401;82;21294;-83
2021/10/25 07:02:14;;;;;;;6.95;2.83;;;;;;;9.91;47.68;103331.77;1743388;82;21875;-76
2021/10/25 07:04:53;;;;;;;7.70;2.40;;;;;;;10.03;47.71;103330.23;1742541;82;21385;-75
2021/10/25 07:07:27;;;;;;;6.33;2.37;;;;;;;10.15;47.69;103330.12;1743259;82;21365;-85
2021/10/25 07:10:02;;;;;;;4.95;2.27;;;;;;;10.26;47.52;103323.53;1744925;81;21191;-78
2021/10/25 07:12:35;;;;;;;7.80;2.35;;;;;;;10.35;47.05;103321.51;1767067;81;21578;-85
2021/10/25 07:15:15;;;;;;;3.95;1.92;;;;;;;10.40;46.11;103327.35;1704252;84;21713;-75
2021/10/25 07:17:54;;;;;;;6.80;2.42;;;;;;;10.39;45.51;103331.19;1758317;81;21321;-75
2021/10/25 07:26:44;;;;;;;8.75;3.17;;;;;;;10.13;46.09;103321.97;1761460;81;21368;-75
2021/10/25 08:05:43;;;;;;;5.62;2.60;;;;;;;10.10;44.48;103313.17;1755380;81;21369;-76
2021/10/25 08:11:05;;;;;;;5.50;1.70;;;;;;;9.92;44.78;103305.19;1755374;80;21353;-75
2021/10/25 08:13:41;;;;;;;3.25;1.80;;;;;;;9.91;44.80;103310.95;1758375;81;21302;-75
2021/10/25 08:16:41;;;;;;;4.72;2.50;;;;;;;9.90;44.71;103314.23;1764929;80;21345;-76
2021/10/25 08:21:38;;;;;;;10.90;3.08;;;;;;;9.89;44.95;103306.97;1699448;83;21900;-77
2021/10/25 08:24:13;;;;;;;8.75;3.30;;;;;;;9.87;44.95;103308.22;1760009;81;21178;-76
2021/10/25 08:26:50;;;;;;;5.03;2.10;;;;;;;9.88;44.80;103325.19;1755815;81;21307;-76
2021/10/25 08:29:23;;;;;;;7.40;1.87;;;;;;;9.87;44.48;103310.48;1757916;81;21194;-75
2021/10/25 08:40:05;;;;;;;6.03;2.95;;;;;;;10.03;44.44;103324.17;1770636;81;21720;-74
2021/10/25 08:42:40;;;;;;;5.20;2.12;;;;;;;10.06;44.46;103313.21;1761308;80;21709;-78
2021/10/25 08:45:29;;;;;;;3.58;1.92;;;;;;;10.09;44.51;103321.17;1761349;80;21871;-75
2021/10/25 08:47:50;;;;;;;4.25;2.05;;;;;;;10.08;44.40;103314.74;1762315;80;21309;-80
2021/10/25 08:50:25;;;;;;;5.37;2.03;;;;;;;10.06;44.46;103312.70;1765097;80;21755;-76
2021/10/25 08:52:58;;;;;;;6.90;2.87;;;;;;;10.09;44.51;103313.69;1759303;81;21349;-74
2021/10/25 08:55:34;;;;;;;12.10;3.50;;;;;;;10.17;44.79;103312.73;1759523;80;21386;-75
2021/10/25 08:58:07;;;;;;;6.75;1.90;;;;;;;10.23;44.65;103311.44;1764223;80;21282;-76
2021/10/25 09:00:47;;;;;;;4.08;2.47;;;;;;;10.30;44.71;103316.55;1760607;81;21370;-75
2021/10/25 09:03:34;;;;;;;3.47;1.67;;;;;;;10.36;44.35;103311.61;1759413;80;21320;-75
2021/10/25 09:06:12;;;;;;;3.83;2.02;;;;;;;10.37;43.56;103323.04;1750904;80;21337;-76
2021/10/25 09:08:45;;;;;;;3.92;1.50;;;;;;;10.30;43.18;103329.05;1761803;80;21372;-77
2021/10/25 09:11:19;;;;;;;6.47;2.10;;;;;;;10.19;43.48;103318.94;1765177;80;21400;-76
2021/10/25 09:13:54;;;;;;;5.55;2.15;;;;;;;10.14;43.80;103319.52;1756104;81;21206;-74
2021/10/25 09:16:26;;;;;;;7.97;2.65;;;;;;;10.14;43.88;103317.26;1757626;81;21631;-74
2021/10/25 09:19:20;;;;;;;6.42;2.40;;;;;;;10.16;43.56;103324.89;1746973;81;21194;-76
2021/10/25 09:21:52;;;;;;;3.67;1.90;;;;;;;10.14;43.52;103319.52;1739082;82;21191;-79
2021/10/25 09:24:26;;;;;;;2.50;1.57;;;;;;;10.15;43.20;103324.02;1739001;82;21321;-75
2021/10/25 09:27:01;;;;;;;3.52;2.08;;;;;;;10.12;43.37;103323.03;1739126;82;21336;-77
2021/10/25 09:29:37;;;;;;;6.53;2.27;;;;;;;10.10;43.26;103325.12;1752634;81;21334;-77
2021/10/25 09:32:14;;;;;;;4.83;2.30;;;;;;;10.08;42.98;103316.12;1754643;81;21918;-75
2021/10/25 09:34:50;;;;;;;4.67;2.10;;;;;;;10.09;43.23;103317.84;1751648;81;21380;-77
2021/10/25 09:37:59;;;;;;;4.08;2.20;;;;;;;10.06;43.03;103322.41;1750676;79;21211;-76
2021/10/25 09:41:14;;;;;;;5.45;2.58;;;;;;;10.02;43.25;103315.48;1676244;82;21395;-76
2021/10/25 09:45:56;;;;;;;4.12;1.67;;;;;;;10.04;42.81;103305.07;1714485;83;21420;-75
2021/10/25 09:50:58;;;;;;;4.00;1.60;;;;;;;10.06;43.47;103299.33;1745549;81;21424;-76
2021/10/25 09:53:45;;;;;;;2.22;1.72;;;;;;;10.09;43.45;103303.97;1746521;81;21383;-76
2021/10/25 09:56:18;;;;;;;4.00;2.17;;;;;;;10.10;43.06;103298.74;1739942;82;21862;-77
2021/10/25 09:59:11;;;;;;;7.53;2.30;;;;;;;10.09;43.27;103303.97;1736186;82;21340;-81
2021/10/25 10:01:42;;;;;;;5.30;1.80;;;;;;;10.12;43.00;103291.11;1740363;82;21751;-77
2021/10/25 10:04:16;;;;;;;3.33;1.90;;;;;;;10.15;42.91;103293.48;1740305;81;21851;-82
2021/10/25 10:07:06;;;;;;;3.67;2.08;;;;;;;10.20;43.03;103290.11;1740063;82;21198;-74
2021/10/25 10:09:41;;;;;;;7.60;2.15;;;;;;;10.25;43.05;103289.88;1740201;82;21270;-76
2021/10/25 10:12:18;;;;;;;3.90;2.60;;;;;;;10.29;42.94;103291.19;1740078;82;21246;-75
2021/10/25 10:14:54;;;;;;;3.05;1.92;;;;;;;10.31;42.99;103293.27;1739592;82;21392;-74
2021/10/25 10:17:48;;;;;;;3.67;1.90;;;;;;;10.32;42.90;103300.55;1740156;82;21399;-77
2021/10/25 10:20:41;;;;;;;5.47;2.47;;;;;;;10.33;42.67;103295.86;1740068;82;21307;-75
2021/10/25 10:23:17;;;;;;;5.20;2.50;;;;;;;10.34;42.82;103290.09;1740098;82;21191;-76
2021/10/25 10:25:56;;;;;;;6.05;2.47;;;;;;;10.38;42.92;103287.27;1739865;82;21179;-73
2021/10/25 10:28:47;;;;;;;9.28;2.33;;;;;;;10.43;43.00;103286.67;1740062;82;21866;-74
2021/10/25 10:31:25;;;;;;;2.72;2.10;;;;;;;10.44;42.96;103290.65;1740007;82;21347;-75
2021/10/25 10:34:20;;;;;;;2.87;1.70;;;;;;;10.47;43.38;103281.06;1735842;82;21211;-75
2021/10/25 10:36:57;;;;;;;5.17;1.98;;;;;;;10.46;43.51;103276.02;1746403;80;21182;-76
2021/10/25 10:39:44;;;;;;;3.30;2.08;;;;;;;10.47;43.52;103276.34;1773739;81;21194;-78
2021/10/25 10:42:26;;;;;;;6.35;2.37;;;;;;;10.51;43.54;103271.30;1757844;81;21265;-77
2021/10/25 10:45:07;;;;;;;3.92;2.27;;;;;;;10.50;43.71;103267.64;1773421;80;21854;-77
2021/10/25 10:47:52;;;;;;;5.25;2.35;;;;;;;10.49;43.64;103270.61;1773447;80;21865;-75
2021/10/25 10:50:32;;;;;;;6.70;2.10;;;;;;;10.46;43.92;103271.86;1770591;81;21938;-76
2021/10/25 10:53:06;;;;;;;3.90;2.72;;;;;;;10.43;44.20;103268.61;1770513;81;21850;-77
2021/10/25 10:55:42;;;;;;;3.87;2.17;;;;;;;10.44;44.35;103267.55;1773481;80;21194;-76
2021/10/25 10:58:39;;;;;;;11.15;3.35;;;;;;;10.42;44.34;103258.05;1773454;80;21783;-77
2021/10/25 11:01:08;;;;;;;6.85;2.60;;;;;;;10.43;44.50;103262.55;1770477;81;21374;-80
2021/10/25 11:03:40;;;;;;;6.12;2.65;;;;;;;10.42;44.72;103267.77;1773566;81;21340;-79
2021/10/25 11:08:49;;;;;;;3.75;2.30;;;;;;;10.39;45.12;103265.92;1773584;81;21838;-76
2021/10/25 11:11:23;;;;;;;12.50;2.72;;;;;;;10.35;45.02;103261.80;1773539;81;21388;-76
2021/10/25 11:14:02;;;;;;;5.08;2.55;;;;;;;10.31;45.32;103275.22;1773696;81;21340;-77
2021/10/25 11:22:35;;;;;;;6.92;2.50;;;;;;;10.25;45.61;103259.85;1788919;79;21215;-78
2021/10/25 11:25:10;;;;;;;3.67;2.47;;;;;;;10.28;45.74;103257.55;1788035;80;21381;-78
2021/10/25 11:27:43;;;;;;;4.85;2.60;;;;;;;10.31;45.89;103248.84;1705868;84;21813;-77
2021/10/25 11:30:18;;;;;;;3.72;2.47;;;;;;;10.34;46.22;103248.98;1727049;83;21369;-82
2021/10/25 11:32:52;;;;;;;4.35;2.83;;;;;;;10.31;46.54;103253.00;1726904;83;21849;-75
2021/10/25 11:35:25;;;;;;;5.67;2.72;;;;;;;10.32;46.39;103249.68;1728089;83;21413;-83
2021/10/25 11:38:03;;;;;;;5.00;3.20;;;;;;;10.29;46.58;103246.77;1707150;84;21847;-81
2021/10/25 11:40:38;;;;;;;5.55;3.42;;;;;;;10.31;46.87;103251.61;1728292;83;21188;-85
2021/10/25 11:43:13;;;;;;;11.45;3.62;;;;;;;10.33;47.03;103244.48;1707092;84;21892;-85
2021/10/25 11:45:47;;;;;;;7.97;3.35;;;;;;;10.34;47.19;103247.59;1729473;83;21736;-82
2021/10/25 11:48:32;;;;;;;7.15;3.72;;;;;;;10.36;47.30;103248.24;1709112;84;21808;-85
2021/10/25 11:51:06;;;;;;;5.83;2.97;;;;;;;10.37;47.40;103243.02;1725864;80;21309;-75
2021/10/25 11:53:41;;;;;;;9.70;5.62;;;;;;;10.36;47.69;103244.95;1695259;82;21193;-76
2021/10/25 11:56:20;;;;;;;10.55;5.08;;;;;;;10.37;47.77;103237.46;1694819;83;21881;-75
2021/10/25 11:58:53;;;;;;;7.70;3.50;;;;;;;10.36;47.83;103243.56;1725373;82;21257;-75
2021/10/25 12:01:26;;;;;;;5.00;3.40;;;;;;;10.34;47.87;103229.54;1694930;83;21348;-76
2021/10/25 12:04:08;;;;;;;6.03;3.52;;;;;;;10.29;47.81;103236.20;1724223;81;21336;-75
2021/10/25 12:06:40;;;;;;;10.38;4.03;;;;;;;10.28;48.12;103233.94;1694218;83;21351;-73
2021/10/25 12:09:13;;;;;;;8.50;3.98;;;;;;;10.31;48.33;103229.91;1694989;83;21234;-78
2021/10/25 12:11:54;;;;;;;6.55;3.77;;;;;;;10.33;48.38;103227.28;1725362;82;21375;-77
2021/10/25 12:14:33;;;;;;;15.70;3.75;;;;;;;10.36;48.40;103232.97;1694903;83;21884;-78
2021/10/25 12:17:02;;;;;;;7.35;3.90;;;;;;;10.36;48.53;103232.45;1725351;82;21181;-76
2021/10/25 12:19:34;;;;;;;9.33;4.12;;;;;;;10.37;48.38;103241.11;1695390;83;21212;-77
2021/10/25 12:22:09;;;;;;;;;;;;;;;10.38;48.34;103244.22;1696514;83;21202;-76
2021/10/25 12:24:44;;;;;;;6.67;4.08;;;;;;;10.37;48.36;103241.11;1717527;83;20565;-76
2021/10/25 12:27:21;;;;;;;7.83;3.52;;;;;;;10.37;48.35;103248.05;1725301;82;21206;-77
2021/10/25 12:30:11;;;;;;;7.03;3.65;;;;;;;10.41;48.42;103247.97;1725237;81;21186;-76
2021/10/25 12:32:59;;;;;;;6.42;3.12;;;;;;;10.43;48.37;103244.48;1725188;82;21408;-76
2021/10/25 12:35:43;;;;;;;6.85;3.00;;;;;;;10.41;48.10;103246.58;1698686;82;21869;-75
2021/10/25 12:38:17;;;;;;;;;;;;;;;10.40;47.94;103241.25;1727785;81;21970;-75
2021/10/25 12:40:57;;;;;;;5.42;3.10;;;;;;;10.36;48.00;103240.78;1725177;82;20223;-75
2021/10/25 12:43:54;;;;;;;4.25;2.50;;;;;;;10.34;48.20;103237.32;1721586;81;21411;-76
2021/10/25 12:46:33;;;;;;;5.33;3.10;;;;;;;10.35;48.53;103236.80;1725063;81;21233;-78
2021/10/25 12:49:05;;;;;;;7.10;3.10;;;;;;;10.34;48.45;103238.71;1725189;82;21735;-76
2021/10/25 12:51:41;;;;;;;6.53;3.10;;;;;;;10.32;48.14;103232.50;1731099;82;21386;-80
2021/10/25 12:54:15;;;;;;;7.12;3.15;;;;;;;10.29;48.20;103232.04;1734010;82;21418;-77
2021/10/25 12:56:47;;;;;;;6.20;3.12;;;;;;;10.27;48.29;103228.61;1718259;83;21855;-78
2021/10/25 12:59:21;;;;;;;11.25;3.17;;;;;;;10.25;48.16;103227.41;1749560;82;21858;-75
2021/10/25 13:01:55;;;;;;;8.75;3.30;;;;;;;10.25;48.37;103227.41;1734272;81;21344;-79
2021/10/25 13:04:30;;;;;;;6.47;4.00;;;;;;;10.25;48.56;103232.09;1786768;80;21323;-76
2021/10/25 13:07:14;;;;;;;6.17;3.30;;;;;;;10.23;48.62;103240.64;1779729;80;21688;-76
2021/10/25 13:09:53;;;;;;;7.92;3.08;;;;;;;10.21;48.56;103229.39;1755866;82;21395;-80
2021/10/25 13:12:26;;;;;;;8.55;3.50;;;;;;;10.18;48.53;103222.31;1774476;80;21252;-76
2021/10/25 13:14:58;;;;;;;7.15;3.22;;;;;;;10.16;48.86;103218.84;1781757;80;21735;-76
2021/10/25 13:17:32;;;;;;;7.40;3.50;;;;;;;10.16;48.79;103218.01;1754914;80;21908;-75
2021/10/25 13:20:07;;;;;;;6.62;3.15;;;;;;;10.16;48.81;103221.62;1755524;81;21534;-75
2021/10/25 13:22:39;;;;;;;15.63;3.52;;;;;;;10.17;48.83;103221.98;1755652;82;21741;-76
2021/10/25 13:25:12;;;;;;;8.98;3.50;;;;;;;10.18;48.85;103218.14;1755515;80;21355;-75
2021/10/25 13:27:46;;;;;;;6.00;3.20;;;;;;;10.19;48.99;103219.86;1755847;81;21197;-75
2021/10/25 13:30:20;;;;;;;6.90;2.83;;;;;;;10.22;48.92;103218.61;1755902;82;21488;-75
2021/10/25 13:32:53;;;;;;;5.33;2.77;;;;;;;10.20;48.58;103214.63;1755652;81;21197;-76
2021/10/25 13:35:30;;;;;;;3.98;2.62;;;;;;;10.21;48.57;103217.73;1755905;81;21355;-78
2021/10/25 13:38:05;;;;;;;5.80;4.00;;;;;;;10.22;48.66;103213.06;1755773;81;21291;-75
2021/10/25 13:40:38;;;;;;;5.87;3.17;;;;;;;10.20;48.94;103207.69;1755675;80;21415;-75
2021/10/25 13:43:12;;;;;;;4.62;2.95;;;;;;;10.20;48.96;103210.47;1754251;79;21335;-75
2021/10/25 13:45:47;;;;;;;8.93;3.30;;;;;;;10.22;49.01;103206.12;1803313;79;21257;-75
2021/10/25 13:48:19;;;;;;;6.72;3.62;;;;;;;10.24;49.02;103207.64;1802649;79;21441;-75
2021/10/25 13:50:52;;;;;;;8.10;3.67;;;;;;;10.25;49.01;103209.36;1801595;79;21325;-77